Terminal Aerodrome Forecast
Issued by NWS

Home | Current Version | Previous Version | Text Only | Print | Product List | Glossary On
Versions: 1 2 3 4 5 6 7 8 9 10 11 12 13 14 15 16
149
FTUS41 KGYX 272250 AAC
TAFRKD
TAF AMD
KRKD 272250Z 2723/2818 17008KT 6SM -SHRA SCT005 BKN025
      TEMPO 2723/2802 3SM -TSRA BR BKN005CB
     FM280400 22004KT 1SM BR BKN005
     FM281300 25008KT P6SM SCT040
      AMD LTD TO CLD VIS AND WIND=

USA.gov is the U.S. government's official web portal to all federal, state and local government web resources and services.